Time;durP1;ratioP1;P1;durP2;ratioP2;P2;SDS_P1;SDS_P2;PMS_P1;PMS_P2;Temp;Humidity;BMP_temperature;BMP_pressure;BME280_temperature;BME280_humidity;BME280_pressure;Samples;Min_cycle;Max_cycle;Signal;HPM_P1;HPM_P2
2021/12/23 00:02:08;;;;;;;17.00;11.63;;;;;;;-2.21;93.29;100623.50;5091302;28;20198;-72
2021/12/23 00:04:35;;;;;;;23.20;12.40;;;;;;;-2.27;93.16;100617.38;5090797;28;20579;-71
2021/12/23 00:07:01;;;;;;;31.83;14.43;;;;;;;-2.31;93.27;100631.47;5089330;28;20199;-71
2021/12/23 00:09:51;;;;;;;26.67;14.40;;;;;;;-2.38;93.51;100638.66;5089083;28;20223;-72
2021/12/23 00:12:16;;;;;;;22.83;13.67;;;;;;;-2.42;93.73;100630.16;5087835;28;20644;-72
2021/12/23 00:14:44;;;;;;;28.10;13.93;;;;;;;-2.39;93.70;100634.47;5088816;28;20594;-70
2021/12/23 00:17:22;;;;;;;29.37;13.40;;;;;;;-2.41;93.88;100634.38;5088846;28;20195;-70
2021/12/23 00:20:00;;;;;;;24.63;13.57;;;;;;;-2.43;93.74;100636.00;5087722;28;20582;-71
2021/12/23 00:25:22;;;;;;;23.40;12.57;;;;;;;-2.45;93.77;100627.50;5050445;28;20598;-70
2021/12/23 00:27:49;;;;;;;18.13;11.50;;;;;;;-2.44;93.81;100634.25;5082228;28;20209;-70
2021/12/23 00:30:16;;;;;;;20.90;13.60;;;;;;;-2.44;93.70;100628.38;5093105;28;20282;-71
2021/12/23 00:32:45;;;;;;;24.33;13.17;;;;;;;-2.44;93.50;100631.75;5088771;28;20248;-70
2021/12/23 00:35:12;;;;;;;26.57;15.20;;;;;;;-2.46;93.32;100624.97;5092986;28;20195;-70
2021/12/23 00:37:42;;;;;;;25.37;13.60;;;;;;;-2.48;93.14;100627.38;5092736;28;20202;-70
2021/12/23 00:40:12;;;;;;;24.60;14.50;;;;;;;-2.46;93.12;100630.84;5092936;28;20191;-70
2021/12/23 00:42:40;;;;;;;26.33;14.30;;;;;;;-2.45;93.00;100626.66;5093200;28;20195;-70
2021/12/23 00:45:08;;;;;;;21.37;12.10;;;;;;;-2.48;93.04;100627.38;5092765;28;20245;-70
2021/12/23 00:47:34;;;;;;;24.63;13.83;;;;;;;-2.48;92.90;100627.38;5094870;28;20203;-70
2021/12/23 00:50:03;;;;;;;24.90;14.27;;;;;;;-2.49;92.99;100620.69;5094558;28;20667;-70
2021/12/23 00:52:34;;;;;;;29.13;14.07;;;;;;;-2.50;93.03;100623.09;5094294;28;20222;-70
2021/12/23 00:55:01;;;;;;;24.07;14.43;;;;;;;-2.56;93.16;100628.75;5094354;28;20192;-70
2021/12/23 00:57:29;;;;;;;26.37;15.20;;;;;;;-2.81;93.64;100585.84;5094564;28;20690;-70
2021/12/23 00:59:58;;;;;;;29.97;14.03;;;;;;;-2.61;93.84;100627.69;5094197;28;20211;-71
2021/12/23 01:02:29;;;;;;;33.13;17.30;;;;;;;-2.72;93.54;100607.16;5087849;28;20200;-70
2021/12/23 01:04:56;;;;;;;23.13;13.63;;;;;;;-2.59;93.25;100627.75;5094078;28;20629;-70
2021/12/23 01:07:24;;;;;;;23.07;13.77;;;;;;;-2.62;93.50;100625.97;5092296;28;20552;-70
2021/12/23 01:09:51;;;;;;;29.30;16.23;;;;;;;-2.64;93.55;100620.03;5092957;28;20223;-70
2021/12/23 01:12:24;;;;;;;29.53;15.67;;;;;;;-2.73;93.58;100614.63;5093993;28;20212;-70
2021/12/23 01:14:57;;;;;;;29.13;14.57;;;;;;;-2.71;93.93;100628.06;5094450;28;20195;-70
2021/12/23 01:17:42;;;;;;;32.80;14.93;;;;;;;-2.70;94.04;100624.78;5093833;28;20679;-70
2021/12/23 01:20:10;;;;;;;24.17;14.57;;;;;;;-2.73;94.33;100609.59;5093948;28;20573;-70
2021/12/23 01:22:38;;;;;;;28.03;14.03;;;;;;;-2.74;94.54;100607.88;5093928;28;20225;-70
2021/12/23 01:25:06;;;;;;;22.80;14.13;;;;;;;-2.76;94.73;100606.97;5093932;28;20203;-70
2021/12/23 01:27:33;;;;;;;31.40;14.07;;;;;;;-2.78;95.08;100606.06;5093817;28;20196;-70
2021/12/23 01:30:02;;;;;;;25.40;14.80;;;;;;;-2.79;95.15;100610.22;5093683;28;20199;-69
2021/12/23 01:32:29;;;;;;;22.03;13.03;;;;;;;-2.77;95.24;100607.75;5093248;28;20695;-70
2021/12/23 01:34:56;;;;;;;22.83;12.70;;;;;;;-2.78;94.89;100606.06;5093845;28;20202;-70
2021/12/23 01:37:23;;;;;;;26.43;13.63;;;;;;;-2.76;94.80;100609.47;5093466;28;20196;-70
2021/12/23 01:39:51;;;;;;;21.00;13.27;;;;;;;-2.76;94.71;100614.50;5093755;28;20207;-70
2021/12/23 01:42:18;;;;;;;24.23;14.43;;;;;;;-2.79;94.59;100604.34;5093284;28;20197;-70
2021/12/23 01:44:45;;;;;;;29.00;14.13;;;;;;;-2.82;94.64;100594.16;5093555;28;20210;-70
2021/12/23 01:47:12;;;;;;;25.93;15.00;;;;;;;-2.84;94.37;100598.25;5093228;28;20201;-70
2021/12/23 01:49:39;;;;;;;26.10;15.53;;;;;;;-2.85;94.35;100596.56;5093656;28;20195;-70
2021/12/23 01:52:07;;;;;;;26.90;15.60;;;;;;;-2.84;94.40;100594.09;5093273;28;20211;-70
2021/12/23 01:54:34;;;;;;;28.50;16.07;;;;;;;-2.83;94.26;100584.91;5093406;28;20209;-70
2021/12/23 01:57:02;;;;;;;31.13;16.20;;;;;;;-2.84;94.29;100599.09;5093366;28;20202;-70
2021/12/23 01:59:29;;;;;;;32.00;15.57;;;;;;;-2.85;94.20;100594.03;5093167;28;20206;-69
2021/12/23 02:01:56;;;;;;;28.47;16.57;;;;;;;-2.90;94.29;100585.44;5093327;28;20584;-70
2021/12/23 02:04:23;;;;;;;30.13;15.13;;;;;;;-3.00;94.97;100584.19;5091976;28;20218;-70
2021/12/23 02:06:50;;;;;;;28.63;15.80;;;;;;;-2.94;94.90;100583.63;5092408;28;20206;-70
2021/12/23 02:09:18;;;;;;;27.87;14.20;;;;;;;-2.89;94.81;100582.16;5092300;28;20205;-70
2021/12/23 02:11:45;;;;;;;26.70;15.03;;;;;;;-2.88;94.71;100578.84;5092838;28;20690;-70
2021/12/23 02:14:18;;;;;;;26.07;15.13;;;;;;;-3.11;94.46;100547.78;5093133;28;20195;-70
2021/12/23 02:16:45;;;;;;;25.33;13.97;;;;;;;-2.99;94.71;100575.03;5091024;28;20268;-70
2021/12/23 02:19:16;;;;;;;22.27;14.70;;;;;;;-2.92;94.63;100582.03;5092732;28;20199;-70
2021/12/23 02:21:45;;;;;;;25.07;14.33;;;;;;;-2.91;94.27;100573.72;5092438;28;20219;-70
2021/12/23 02:24:12;;;;;;;23.17;14.73;;;;;;;-2.92;94.35;100577.00;5092201;28;20579;-70
2021/12/23 02:26:39;;;;;;;19.20;14.03;;;;;;;-2.90;94.03;100575.41;5092407;28;20203;-70
2021/12/23 02:29:06;;;;;;;21.53;12.90;;;;;;;-2.89;93.96;100582.16;5092642;28;20198;-69
2021/12/23 02:31:34;;;;;;;24.30;13.43;;;;;;;-2.94;93.76;100579.44;5092243;28;20225;-70
2021/12/23 02:34:01;;;;;;;21.00;14.07;;;;;;;-2.93;94.06;100578.66;5088153;28;20198;-70
2021/12/23 02:36:30;;;;;;;24.13;12.97;;;;;;;-2.92;94.21;100589.56;5090543;28;20200;-70
2021/12/23 02:38:59;;;;;;;24.73;14.90;;;;;;;-2.96;94.10;100582.69;5090898;28;20584;-69
2021/12/23 02:41:26;;;;;;;22.10;12.23;;;;;;;-2.90;94.05;100585.44;5090596;28;20201;-70
2021/12/23 02:43:53;;;;;;;21.87;12.43;;;;;;;-2.91;93.89;100589.63;5089540;28;20195;-70
2021/12/23 02:46:20;;;;;;;18.67;11.70;;;;;;;-2.90;93.62;100582.94;5090433;28;20206;-70
2021/12/23 02:48:48;;;;;;;27.37;12.77;;;;;;;-3.02;93.73;100570.75;5092161;28;20234;-69
2021/12/23 02:51:16;;;;;;;22.47;12.67;;;;;;;-3.21;94.82;100578.28;5092250;28;20278;-70
2021/12/23 02:53:45;;;;;;;20.10;12.30;;;;;;;-3.33;95.85;100558.53;5092240;28;20199;-69
2021/12/23 02:56:15;;;;;;;18.30;12.03;;;;;;;-3.31;96.86;100577.03;5092164;28;20187;-70
2021/12/23 02:58:44;;;;;;;17.43;12.07;;;;;;;-3.42;97.76;100573.16;5090895;28;20685;-69
2021/12/23 03:01:11;;;;;;;20.47;11.60;;;;;;;-3.38;97.94;100574.16;5090857;28;20207;-69
2021/12/23 03:03:38;;;;;;;20.53;12.40;;;;;;;-3.42;98.29;100574.81;5090416;28;20613;-69
2021/12/23 03:06:05;;;;;;;22.57;12.20;;;;;;;-3.46;98.58;100578.88;5091657;28;20210;-70
2021/12/23 03:08:35;;;;;;;15.17;11.83;;;;;;;-3.46;98.96;100576.34;5092103;28;20202;-70
2021/12/23 03:11:02;;;;;;;20.63;13.83;;;;;;;-3.45;98.91;100583.06;5091408;28;20702;-69
2021/12/23 03:13:30;;;;;;;20.53;13.37;;;;;;;-3.41;98.98;100589.94;5091875;28;20221;-70
2021/12/23 03:15:57;;;;;;;20.93;12.43;;;;;;;-3.38;98.58;100585.06;5091687;28;20698;-70
2021/12/23 03:18:24;;;;;;;23.70;11.97;;;;;;;-3.42;98.66;100588.22;5092091;28;20682;-69
2021/12/23 03:20:51;;;;;;;20.57;12.27;;;;;;;-3.40;98.65;100581.63;5091566;28;20225;-70
2021/12/23 03:23:19;;;;;;;14.43;11.63;;;;;;;-3.35;98.61;100585.19;5088196;28;20681;-70
2021/12/23 03:25:46;;;;;;;21.70;11.63;;;;;;;-3.36;98.37;100588.47;5088946;28;20590;-69
2021/12/23 03:28:13;;;;;;;15.20;11.23;;;;;;;-3.40;98.13;100581.63;5091489;28;20198;-70
2021/12/23 03:30:41;;;;;;;16.20;9.80;;;;;;;-3.49;98.19;100596.25;5091840;28;20663;-70
2021/12/23 03:33:08;;;;;;;20.73;11.30;;;;;;;-3.60;98.54;100571.50;5091165;28;20223;-69
2021/12/23 03:35:36;;;;;;;19.33;11.20;;;;;;;-3.48;97.92;100594.59;5091479;28;20187;-69
2021/12/23 03:38:04;;;;;;;11.23;9.70;;;;;;;-3.48;97.93;100597.97;5091057;28;20199;-70
2021/12/23 03:40:31;;;;;;;11.90;10.03;;;;;;;-3.51;97.56;100592.81;5091734;28;20566;-70
2021/12/23 03:42:58;;;;;;;14.73;10.20;;;;;;;-3.64;97.50;100562.13;5091496;28;20203;-71
2021/12/23 03:45:25;;;;;;;18.23;9.27;;;;;;;-3.48;97.38;100592.94;5091646;28;20571;-70
2021/12/23 03:47:53;;;;;;;18.23;11.33;;;;;;;-3.42;97.07;100603.25;5091369;28;20591;-70
2021/12/23 03:50:23;;;;;;;14.93;9.63;;;;;;;-3.39;96.98;100598.38;5090074;28;20556;-70
2021/12/23 03:52:50;;;;;;;12.43;9.43;;;;;;;-3.60;96.44;100558.97;5090954;28;20219;-70
2021/12/23 03:55:18;;;;;;;14.90;9.60;;;;;;;-3.31;96.33;100606.25;5090676;28;20203;-70
2021/12/23 03:57:46;;;;;;;13.00;9.10;;;;;;;-3.25;95.98;100611.53;5089859;28;20206;-70
2021/12/23 04:00:16;;;;;;;10.23;8.77;;;;;;;-3.26;95.16;100614.81;5089391;28;20723;-69
2021/12/23 04:02:43;;;;;;;10.60;8.40;;;;;;;-3.27;95.02;100613.97;5089595;28;20195;-69
2021/12/23 04:05:13;;;;;;;11.63;8.50;;;;;;;-3.27;95.13;100619.00;5090737;28;20195;-70
2021/12/23 04:07:40;;;;;;;10.07;8.57;;;;;;;-3.26;95.11;100618.19;5091502;28;20200;-69
2021/12/23 04:10:07;;;;;;;12.40;9.47;;;;;;;-3.25;94.99;100617.41;5090576;28;20314;-69
2021/12/23 04:12:35;;;;;;;11.27;8.40;;;;;;;-3.25;94.78;100617.41;5090523;28;20710;-70
2021/12/23 04:15:02;;;;;;;11.97;7.97;;;;;;;-3.22;94.71;100622.56;5091312;28;20553;-69
2021/12/23 04:17:29;;;;;;;10.23;8.10;;;;;;;-3.27;94.49;100613.97;5090658;28;20199;-70
2021/12/23 04:20:03;;;;;;;19.30;11.10;;;;;;;-3.25;94.13;100627.44;5089848;28;20286;-69
2021/12/23 04:22:31;;;;;;;14.97;9.73;;;;;;;-3.29;94.63;100624.72;5088520;28;20195;-70
2021/12/23 04:24:58;;;;;;;15.80;9.97;;;;;;;-3.31;94.79;100627.16;5090384;28;20199;-69
2021/12/23 04:27:25;;;;;;;9.27;8.33;;;;;;;-3.26;94.75;100629.84;5089660;28;20199;-69
2021/12/23 04:29:52;;;;;;;13.60;9.00;;;;;;;-3.27;94.72;100624.00;5089870;28;20191;-70
2021/12/23 04:32:19;;;;;;;9.80;8.97;;;;;;;-3.23;94.39;100633.34;5088585;28;20221;-69
2021/12/23 04:34:46;;;;;;;10.83;8.57;;;;;;;-3.28;94.17;100631.44;5089101;28;20648;-69
2021/12/23 04:37:13;;;;;;;14.67;9.83;;;;;;;-3.34;94.52;100626.16;5089208;28;20729;-70
2021/12/23 04:39:42;;;;;;;20.57;12.67;;;;;;;-3.51;95.31;100635.44;5088178;28;20192;-69
2021/12/23 04:42:09;;;;;;;16.67;10.23;;;;;;;-3.57;95.82;100625.13;5089291;28;20194;-69
2021/12/23 04:44:36;;;;;;;17.97;11.67;;;;;;;-3.61;96.77;100625.78;5089230;28;20579;-69
2021/12/23 04:47:03;;;;;;;17.50;11.27;;;;;;;-3.58;96.79;100613.38;5090032;28;20278;-69
2021/12/23 04:49:30;;;;;;;22.53;12.37;;;;;;;-3.55;96.67;100625.22;5088677;28;20199;-69
2021/12/23 04:51:57;;;;;;;21.77;12.57;;;;;;;-3.53;96.69;100621.97;5089054;28;20232;-68
2021/12/23 04:54:24;;;;;;;21.67;14.50;;;;;;;-3.49;96.79;100626.31;5088049;28;20225;-69
2021/12/23 04:56:52;;;;;;;18.97;12.33;;;;;;;-3.49;96.64;100626.31;5089392;28;20199;-68
2021/12/23 04:59:20;;;;;;;23.63;14.00;;;;;;;-3.47;96.63;100618.88;5088175;28;20230;-68
2021/12/23 05:01:47;;;;;;;26.53;14.03;;;;;;;-3.43;96.28;100615.72;5089325;28;20196;-68
2021/12/23 05:04:14;;;;;;;36.90;17.03;;;;;;;-3.41;96.00;100615.00;5090873;28;20195;-68
2021/12/23 05:06:41;;;;;;;61.27;24.70;;;;;;;-3.41;95.78;100607.47;5090210;28;20204;-68
2021/12/23 05:09:08;;;;;;;65.90;26.60;;;;;;;-3.43;95.40;100600.69;5093425;28;20199;-68
2021/12/23 05:11:35;;;;;;;61.70;22.30;;;;;;;-3.38;94.97;100615.13;5093895;28;20218;-68
2021/12/23 05:14:03;;;;;;;42.77;18.00;;;;;;;-3.37;94.50;100621.88;5094137;28;20219;-68
2021/12/23 05:16:30;;;;;;;33.37;17.53;;;;;;;-3.37;94.25;100621.88;5093966;28;20205;-68
2021/12/23 05:18:57;;;;;;;40.60;17.47;;;;;;;-3.41;94.39;100625.03;5093969;28;20199;-68
2021/12/23 05:21:24;;;;;;;43.57;17.93;;;;;;;-3.43;94.61;100615.72;5094363;28;20195;-68
2021/12/23 05:23:51;;;;;;;41.93;16.93;;;;;;;-3.45;94.52;100628.19;5093688;28;20191;-68
2021/12/23 05:26:18;;;;;;;40.60;18.77;;;;;;;-3.45;94.66;100618.16;5093980;28;20195;-68
2021/12/23 05:28:44;;;;;;;39.87;19.37;;;;;;;-3.45;94.32;100630.69;5092867;28;20199;-68
2021/12/23 05:31:13;;;;;;;36.53;17.53;;;;;;;-3.59;94.45;100611.69;5087133;28;20567;-68
2021/12/23 05:33:39;;;;;;;43.43;19.03;;;;;;;-3.50;94.40;100619.59;5091021;28;20572;-68
2021/12/23 05:36:07;;;;;;;39.30;18.97;;;;;;;-3.49;94.49;100628.00;5092757;28;20199;-69
2021/12/23 05:38:34;;;;;;;41.53;18.87;;;;;;;-3.49;94.30;100625.50;5093606;28;20202;-69
2021/12/23 05:41:00;;;;;;;36.50;17.10;;;;;;;-3.51;94.12;100627.91;5093563;28;20548;-69
2021/12/23 05:43:27;;;;;;;25.47;15.17;;;;;;;-3.51;94.35;100627.03;5093939;28;20202;-68
2021/12/23 05:45:54;;;;;;;29.07;14.60;;;;;;;-3.48;94.11;100630.56;5093342;28;20204;-68
2021/12/23 05:48:23;;;;;;;18.33;12.87;;;;;;;-3.51;94.29;100617.88;5093906;28;20663;-70
2021/12/23 05:50:49;;;;;;;24.80;15.90;;;;;;;-3.53;94.49;100618.59;5093633;28;20678;-68
2021/12/23 05:53:16;;;;;;;37.00;21.53;;;;;;;-3.58;94.75;100628.41;5092432;28;20606;-68
2021/12/23 05:55:43;;;;;;;45.60;21.07;;;;;;;-3.59;95.00;100629.22;5092524;28;20211;-69
2021/12/23 05:58:10;;;;;;;40.40;18.53;;;;;;;-3.61;95.00;100638.31;5093098;28;20203;-69
2021/12/23 06:00:37;;;;;;;45.47;20.60;;;;;;;-3.72;95.22;100626.94;5093566;28;20233;-69
2021/12/23 06:03:04;;;;;;;31.77;19.00;;;;;;;-3.71;94.95;100636.16;5092889;28;20206;-68
2021/12/23 06:05:33;;;;;;;56.23;25.23;;;;;;;-3.73;95.28;100640.25;5093481;28;20199;-69
2021/12/23 06:07:59;;;;;;;68.20;30.67;;;;;;;-3.75;95.65;100642.66;5093233;28;20571;-68
2021/12/23 06:10:26;;;;;;;108.40;42.07;;;;;;;-3.75;95.63;100650.19;5093224;28;20602;-69
2021/12/23 06:12:53;;;;;;;147.03;46.80;;;;;;;-3.76;96.05;100645.13;5093153;28;20223;-68
2021/12/23 06:15:20;;;;;;;146.90;46.73;;;;;;;-3.78;96.31;100651.72;5092714;28;20201;-69
2021/12/23 06:17:47;;;;;;;137.30;48.73;;;;;;;-3.77;96.32;100663.44;5092813;28;20203;-69
2021/12/23 06:20:15;;;;;;;113.33;42.43;;;;;;;-3.78;96.22;100656.72;5091938;28;20199;-69
2021/12/23 06:22:43;;;;;;;109.33;40.63;;;;;;;-3.81;95.69;100644.03;5091138;28;20210;-69
2021/12/23 06:25:12;;;;;;;93.03;39.17;;;;;;;-3.71;95.37;100666.22;5092599;28;20203;-68
2021/12/23 06:27:39;;;;;;;118.67;40.63;;;;;;;-3.68;95.29;100661.34;5092928;28;20675;-69
2021/12/23 06:30:15;;;;;;;86.40;37.13;;;;;;;-3.66;95.73;100664.81;5092227;28;20206;-69
2021/12/23 06:32:42;;;;;;;87.10;33.20;;;;;;;-3.69;96.06;100662.16;5087922;28;20218;-68
2021/12/23 06:35:10;;;;;;;77.97;28.03;;;;;;;-3.74;96.51;100668.59;5092159;28;20195;-68
2021/12/23 06:37:37;;;;;;;53.63;23.40;;;;;;;-3.78;97.21;100671.75;5090390;28;20196;-69
2021/12/23 06:40:07;;;;;;;52.33;19.80;;;;;;;-3.72;97.42;100672.03;5090502;28;20199;-68
2021/12/23 06:42:34;;;;;;;49.80;20.40;;;;;;;-3.74;97.63;100679.47;5092790;28;20225;-68
2021/12/23 06:45:02;;;;;;;59.57;24.33;;;;;;;-3.72;97.85;100677.06;5092336;28;20286;-68
2021/12/23 06:47:29;;;;;;;73.77;28.30;;;;;;;-3.68;97.64;100673.88;5092038;28;20214;-73
2021/12/23 06:49:55;;;;;;;54.07;27.47;;;;;;;-3.63;98.07;100677.47;5087414;28;20207;-70
2021/12/23 06:52:22;;;;;;;110.00;32.03;;;;;;;-3.57;98.53;100677.75;5085404;28;20200;-70
2021/12/23 06:54:53;;;;;;;63.50;29.77;;;;;;;-3.53;98.95;100673.75;5087901;28;20221;-70
2021/12/23 06:57:21;;;;;;;89.40;29.10;;;;;;;-3.48;98.98;100672.28;5090412;28;20728;-71
2021/12/23 06:59:49;;;;;;;111.70;29.23;;;;;;;-3.42;99.35;100675.09;5080675;28;20196;-69
2021/12/23 07:02:16;;;;;;;34.20;17.10;;;;;;;-3.40;99.05;100674.38;5080730;28;20292;-71
2021/12/23 07:04:44;;;;;;;38.57;15.70;;;;;;;-3.38;98.50;100667.78;5089033;28;20203;-70
2021/12/23 07:07:13;;;;;;;40.10;17.27;;;;;;;-3.33;98.15;100681.38;5085846;28;20203;-72
2021/12/23 07:09:42;;;;;;;34.37;17.27;;;;;;;-3.37;97.92;100668.66;5085201;28;20204;-71
2021/12/23 07:12:12;;;;;;;33.47;17.73;;;;;;;-3.32;97.44;100670.56;5092079;28;20230;-69
2021/12/23 07:14:41;;;;;;;41.20;20.17;;;;;;;-3.28;97.49;100677.44;5092253;28;20223;-68
2021/12/23 07:17:08;;;;;;;33.87;17.87;;;;;;;-3.25;97.14;100672.56;5087323;28;20571;-68
2021/12/23 07:19:36;;;;;;;28.07;14.00;;;;;;;-3.25;97.51;100667.53;5092343;28;20199;-69
2021/12/23 07:22:04;;;;;;;25.03;12.30;;;;;;;-3.25;97.52;100667.53;5092521;28;20202;-68
2021/12/23 07:24:31;;;;;;;22.60;11.80;;;;;;;-3.22;97.98;100670.19;5092369;28;20586;-69
2021/12/23 07:26:58;;;;;;;11.03;9.77;;;;;;;-3.14;98.15;100672.19;5092237;28;20693;-70
2021/12/23 07:29:25;;;;;;;16.00;10.13;;;;;;;-3.17;98.41;100676.25;5092439;28;20207;-68
2021/12/23 07:31:53;;;;;;;15.33;10.30;;;;;;;-3.14;98.73;100677.19;5091642;28;20199;-69
2021/12/23 07:34:20;;;;;;;13.67;10.60;;;;;;;-3.10;99.13;100677.38;5092191;28;20215;-69
2021/12/23 07:36:47;;;;;;;18.07;10.77;;;;;;;-3.12;99.93;100683.13;5092315;28;20703;-69
2021/12/23 07:39:14;;;;;;;11.03;9.60;;;;;;;-3.04;100.00;100676.81;5092108;28;20195;-69
2021/12/23 07:41:41;;;;;;;15.00;9.53;;;;;;;-3.07;100.00;100671.69;5092046;28;20203;-69
2021/12/23 07:44:09;;;;;;;14.33;10.17;;;;;;;-2.96;100.00;100683.03;5092410;28;20202;-69
2021/12/23 07:46:39;;;;;;;14.23;9.13;;;;;;;-2.95;99.72;100677.22;5092074;28;20234;-68
2021/12/23 07:49:07;;;;;;;12.37;9.83;;;;;;;-2.89;99.66;100682.50;5092213;28;20207;-69
2021/12/23 07:51:34;;;;;;;15.03;9.17;;;;;;;-2.85;99.19;100685.22;5092116;28;20207;-68
2021/12/23 07:54:01;;;;;;;12.57;9.60;;;;;;;-2.75;98.94;100681.47;5091826;28;20207;-68
2021/12/23 07:56:28;;;;;;;8.63;7.70;;;;;;;-2.73;99.03;100688.25;5091928;28;20324;-68
2021/12/23 07:58:55;;;;;;;7.70;6.97;;;;;;;-2.72;99.12;100686.63;5088275;28;20203;-69
2021/12/23 08:01:22;;;;;;;10.90;8.37;;;;;;;-2.60;99.28;100677.09;5089115;28;20197;-70
2021/12/23 08:03:49;;;;;;;9.70;8.63;;;;;;;-2.46;99.37;100676.03;5088676;28;20199;-70
2021/12/23 08:06:17;;;;;;;21.00;11.43;;;;;;;-2.36;98.63;100678.09;5091878;28;20792;-70
2021/12/23 08:08:45;;;;;;;11.00;9.90;;;;;;;-2.24;98.28;100677.78;5091518;28;20226;-69
2021/12/23 08:11:12;;;;;;;10.47;9.23;;;;;;;-2.16;97.99;100677.28;5091476;28;20217;-70
2021/12/23 08:13:39;;;;;;;14.67;8.80;;;;;;;-2.06;97.72;100677.66;5091763;28;20219;-71
2021/12/23 08:16:06;;;;;;;10.97;8.67;;;;;;;-1.95;96.86;100676.44;5091660;28;20694;-71
2021/12/23 08:18:33;;;;;;;13.60;9.73;;;;;;;-1.90;97.02;100679.97;5091834;28;20541;-71
2021/12/23 08:21:01;;;;;;;11.67;9.57;;;;;;;-1.84;95.89;100673.53;5091700;28;20203;-70
2021/12/23 08:23:30;;;;;;;13.37;10.53;;;;;;;-1.81;95.22;100670.31;5091610;28;20191;-71
2021/12/23 08:26:00;;;;;;;17.70;10.77;;;;;;;-1.70;96.03;100669.94;5091488;28;20202;-70
2021/12/23 08:28:27;;;;;;;12.53;9.83;;;;;;;-1.63;95.55;100666.00;5091614;28;20196;-71
2021/12/23 08:30:54;;;;;;;14.83;9.13;;;;;;;-1.56;95.20;100667.94;5091522;28;20244;-70
2021/12/23 08:33:21;;;;;;;12.20;10.37;;;;;;;-1.44;94.99;100663.38;5089599;28;20702;-70
2021/12/23 08:35:48;;;;;;;14.73;9.73;;;;;;;-1.35;94.72;100666.22;5089967;28;20214;-72
2021/12/23 08:38:15;;;;;;;10.33;9.30;;;;;;;-1.30;93.70;100661.38;5091557;28;20682;-71
2021/12/23 08:40:43;;;;;;;13.17;10.17;;;;;;;-1.21;92.88;100665.09;5091887;28;20211;-72
2021/12/23 08:43:10;;;;;;;10.70;9.67;;;;;;;-1.21;92.59;100665.09;5092818;28;20567;-71
2021/12/23 08:45:37;;;;;;;18.97;10.97;;;;;;;-1.10;92.62;100658.78;5095530;28;20199;-72
2021/12/23 08:48:04;;;;;;;15.63;10.70;;;;;;;-1.08;92.80;100659.72;5095235;28;20199;-72
2021/12/23 08:50:32;;;;;;;15.53;10.07;;;;;;;-0.99;93.48;100658.31;5095151;28;20600;-73
2021/12/23 08:53:00;;;;;;;18.40;9.50;;;;;;;-0.91;94.25;100656.94;5094674;28;20199;-72
2021/12/23 08:55:31;;;;;;;9.73;8.73;;;;;;;-0.83;94.13;100655.53;5092071;28;20215;-73
2021/12/23 08:57:59;;;;;;;9.47;8.57;;;;;;;-0.71;94.30;100651.78;5088845;28;20215;-72
2021/12/23 09:00:29;;;;;;;9.43;8.57;;;;;;;-0.63;95.16;100644.50;5089865;28;20224;-72
2021/12/23 09:02:56;;;;;;;11.77;8.90;;;;;;;-0.56;94.14;100641.41;5088501;28;20687;-72
2021/12/23 09:05:23;;;;;;;10.57;8.80;;;;;;;-0.50;94.07;100641.59;5090557;28;20211;-72
2021/12/23 09:07:51;;;;;;;9.37;8.53;;;;;;;-0.45;94.27;100631.69;5090842;28;20203;-72
2021/12/23 09:10:18;;;;;;;12.23;8.60;;;;;;;-0.37;95.29;100622.72;5090217;28;20629;-72
2021/12/23 09:12:45;;;;;;;10.23;8.80;;;;;;;-0.28;94.83;100623.88;5089208;28;20196;-72
2021/12/23 09:15:14;;;;;;;10.50;9.60;;;;;;;-0.19;93.75;100623.31;5090412;28;20215;-71
2021/12/23 09:17:41;;;;;;;12.90;10.27;;;;;;;-0.13;92.43;100616.81;5090009;28;20206;-72
2021/12/23 09:20:12;;;;;;;9.03;8.13;;;;;;;-0.17;92.74;100594.84;5090358;28;20207;-72
2021/12/23 09:22:40;;;;;;;10.63;8.43;;;;;;;-0.01;90.85;100604.59;5089094;28;20203;-71
2021/12/23 09:25:12;;;;;;;8.17;7.47;;;;;;;0.07;89.49;100596.41;5088072;28;20221;-71
2021/12/23 09:27:50;;;;;;;7.87;5.97;;;;;;;0.19;88.71;100584.19;5089188;28;20203;-71
2021/12/23 09:33:04;;;;;;;8.13;7.33;;;;;;;0.28;84.41;100579.41;5089884;28;20237;-71
2021/12/23 09:35:32;;;;;;;8.53;7.67;;;;;;;0.32;85.43;100578.72;5087531;28;20687;-71
2021/12/23 09:38:00;;;;;;;8.77;7.87;;;;;;;0.40;84.86;100578.09;5089546;28;20308;-70
2021/12/23 09:40:29;;;;;;;8.80;6.90;;;;;;;0.51;84.29;100575.91;5088153;28;20691;-71
2021/12/23 09:43:00;;;;;;;7.47;6.77;;;;;;;0.54;84.47;100576.00;5088549;28;20315;-71
2021/12/23 09:45:28;;;;;;;7.33;6.73;;;;;;;0.60;84.12;100572.78;5086971;28;20195;-70
2021/12/23 09:47:56;;;;;;;9.77;7.30;;;;;;;0.77;83.36;100574.97;5087932;28;20203;-70
2021/12/23 09:50:25;;;;;;;9.17;7.57;;;;;;;0.83;81.72;100572.63;5089439;28;20269;-70
2021/12/23 09:52:54;;;;;;;7.93;6.53;;;;;;;0.74;80.83;100554.72;5090457;28;20199;-70
2021/12/23 09:55:24;;;;;;;9.20;7.20;;;;;;;0.89;81.02;100564.34;5088243;28;20309;-70
2021/12/23 09:57:54;;;;;;;10.87;7.80;;;;;;;0.94;79.25;100557.75;5089198;28;20199;-70
2021/12/23 10:00:23;;;;;;;7.63;6.80;;;;;;;0.96;78.41;100557.00;5089021;28;20207;-70
2021/12/23 10:02:52;;;;;;;7.83;7.07;;;;;;;1.05;81.22;100549.66;5089799;28;20214;-69
2021/12/23 10:05:21;;;;;;;8.77;7.77;;;;;;;1.07;82.35;100544.63;5091671;28;20195;-70
2021/12/23 10:07:49;;;;;;;8.50;7.67;;;;;;;1.17;82.45;100535.63;5089751;28;20741;-70
2021/12/23 10:10:22;;;;;;;9.03;8.00;;;;;;;1.22;80.92;100534.94;5083592;28;20791;-68
2021/12/23 10:32:36;;;;;;;7.97;7.17;;;;;;;1.60;80.88;100503.03;5079599;28;20207;-69
2021/12/23 10:38:04;;;;;;;13.53;11.30;;;;;;;1.74;80.63;100489.03;5062135;28;20191;-68
2021/12/23 10:40:31;;;;;;;11.67;7.83;;;;;;;1.80;80.49;100491.69;5087158;28;20608;-68
2021/12/23 10:42:58;;;;;;;8.57;7.77;;;;;;;1.74;78.00;100486.50;5088518;28;20285;-68
2021/12/23 10:45:34;;;;;;;7.37;6.67;;;;;;;1.78;77.58;100483.22;5087524;28;20199;-68
2021/12/23 10:48:09;;;;;;;7.33;6.73;;;;;;;1.89;76.91;100485.97;5091071;28;20200;-68
2021/12/23 10:50:43;;;;;;;8.13;7.50;;;;;;;1.94;78.67;100475.13;5088546;28;20211;-68
2021/12/23 10:53:22;;;;;;;13.57;7.73;;;;;;;1.97;77.36;100480.25;5087945;28;20631;-68
2021/12/23 10:59:11;;;;;;;8.27;6.53;;;;;;;2.00;76.81;100475.25;5088343;28;20210;-69
2021/12/23 11:02:08;;;;;;;8.03;7.33;;;;;;;2.03;76.86;100474.50;5087038;28;20203;-67
2021/12/23 11:04:59;;;;;;;7.23;6.50;;;;;;;2.08;76.56;100470.38;5086394;28;20204;-69
2021/12/23 11:07:41;;;;;;;10.87;9.87;;;;;;;2.00;76.27;100462.63;5082804;28;20675;-68
2021/12/23 11:10:17;;;;;;;7.60;6.90;;;;;;;1.74;75.52;100435.94;5086883;28;20331;-68
2021/12/23 11:36:05;;;;;;;11.87;7.43;;;;;;;2.27;73.34;100421.00;5083595;28;20276;-69
2021/12/23 11:38:40;;;;;;;5.77;5.43;;;;;;;2.36;73.82;100413.63;5085600;28;20260;-69
2021/12/23 11:41:30;;;;;;;7.03;6.43;;;;;;;2.41;73.13;100417.06;5087128;28;20199;-69
2021/12/23 11:43:59;;;;;;;8.93;7.13;;;;;;;2.52;73.13;100415.59;5087600;28;20652;-70
2021/12/23 11:46:32;;;;;;;6.77;6.33;;;;;;;2.58;73.31;100421.63;5087561;28;20235;-69
2021/12/23 11:49:02;;;;;;;7.27;6.53;;;;;;;2.58;72.92;100418.25;5087454;28;20629;-69
2021/12/23 11:51:33;;;;;;;6.37;5.87;;;;;;;2.63;72.57;100417.50;5087937;28;20294;-69
2021/12/23 11:54:03;;;;;;;7.83;7.13;;;;;;;2.67;71.71;100420.94;5087757;28;20199;-69
2021/12/23 11:56:33;;;;;;;7.67;6.97;;;;;;;2.73;71.91;100410.91;5087899;28;20211;-68
2021/12/23 11:59:03;;;;;;;9.70;8.77;;;;;;;2.71;71.96;100404.97;5087132;28;20204;-69
2021/12/23 12:01:40;;;;;;;12.13;9.13;;;;;;;2.66;72.53;100398.97;5086804;28;20265;-69
2021/12/23 12:04:10;;;;;;;7.43;6.53;;;;;;;2.70;72.54;100405.78;5086498;28;20671;-69
2021/12/23 12:06:40;;;;;;;7.03;6.20;;;;;;;2.73;73.28;100405.84;5087007;28;20196;-69
2021/12/23 12:09:14;;;;;;;7.23;6.63;;;;;;;2.71;72.91;100402.44;5086833;28;20207;-69
2021/12/23 12:11:49;;;;;;;8.77;6.77;;;;;;;2.82;72.72;100406.00;5086875;28;20229;-68
2021/12/23 12:14:40;;;;;;;8.90;8.00;;;;;;;2.83;71.59;100405.19;5086683;28;20579;-69
2021/12/23 12:17:37;;;;;;;12.93;10.40;;;;;;;2.84;71.55;100398.44;5089578;28;20678;-69